sensor_id;sensor_type;location;lat;lon;timestamp;P1;durP1;ratioP1;P2;durP2;ratioP2
5831;SDS011;50943;51.448;7.646;2023-03-01T00:00:12;20.57;;;8.10;;
5831;SDS011;50943;51.448;7.646;2023-03-01T00:02:39;17.73;;;9.23;;
5831;SDS011;50943;51.448;7.646;2023-03-01T00:05:06;15.87;;;8.53;;
5831;SDS011;50943;51.448;7.646;2023-03-01T00:07:34;22.63;;;9.87;;
5831;SDS011;50943;51.448;7.646;2023-03-01T00:10:01;18.10;;;10.10;;
5831;SDS011;50943;51.448;7.646;2023-03-01T00:12:27;20.63;;;10.10;;
5831;SDS011;50943;51.448;7.646;2023-03-01T00:14:54;21.30;;;9.07;;
5831;SDS011;50943;51.448;7.646;2023-03-01T00:17:20;16.43;;;8.57;;
5831;SDS011;50943;51.448;7.646;2023-03-01T00:19:47;15.50;;;7.97;;
5831;SDS011;50943;51.448;7.646;2023-03-01T00:22:13;17.93;;;8.30;;
5831;SDS011;50943;51.448;7.646;2023-03-01T00:24:41;16.83;;;9.50;;
5831;SDS011;50943;51.448;7.646;2023-03-01T00:27:08;22.57;;;10.40;;
5831;SDS011;50943;51.448;7.646;2023-03-01T00:29:35;33.67;;;12.37;;
5831;SDS011;50943;51.448;7.646;2023-03-01T00:32:01;31.17;;;12.50;;
5831;SDS011;50943;51.448;7.646;2023-03-01T00:34:28;25.33;;;11.43;;
5831;SDS011;50943;51.448;7.646;2023-03-01T00:36:56;32.53;;;12.23;;
5831;SDS011;50943;51.448;7.646;2023-03-01T00:39:30;23.83;;;9.90;;
5831;SDS011;50943;51.448;7.646;2023-03-01T00:41:58;20.00;;;9.97;;
5831;SDS011;50943;51.448;7.646;2023-03-01T00:44:25;23.77;;;11.50;;
5831;SDS011;50943;51.448;7.646;2023-03-01T00:46:53;26.70;;;9.73;;
5831;SDS011;50943;51.448;7.646;2023-03-01T00:49:19;39.30;;;12.47;;
5831;SDS011;50943;51.448;7.646;2023-03-01T00:51:46;37.10;;;13.10;;
5831;SDS011;50943;51.448;7.646;2023-03-01T00:54:12;33.60;;;12.00;;
5831;SDS011;50943;51.448;7.646;2023-03-01T00:56:39;33.50;;;12.30;;
5831;SDS011;50943;51.448;7.646;2023-03-01T00:59:07;37.50;;;13.13;;
5831;SDS011;50943;51.448;7.646;2023-03-01T01:01:33;21.77;;;11.30;;
5831;SDS011;50943;51.448;7.646;2023-03-01T01:04:00;24.37;;;10.67;;
5831;SDS011;50943;51.448;7.646;2023-03-01T01:06:29;18.33;;;9.13;;
5831;SDS011;50943;51.448;7.646;2023-03-01T01:08:57;24.13;;;11.20;;
5831;SDS011;50943;51.448;7.646;2023-03-01T01:11:27;16.23;;;9.90;;
5831;SDS011;50943;51.448;7.646;2023-03-01T01:13:55;20.70;;;8.90;;
5831;SDS011;50943;51.448;7.646;2023-03-01T01:16:24;18.70;;;9.80;;
5831;SDS011;50943;51.448;7.646;2023-03-01T01:18:51;18.17;;;9.00;;
5831;SDS011;50943;51.448;7.646;2023-03-01T01:21:18;15.30;;;8.43;;
5831;SDS011;50943;51.448;7.646;2023-03-01T01:23:46;17.77;;;9.13;;
5831;SDS011;50943;51.448;7.646;2023-03-01T01:26:14;15.17;;;9.00;;
5831;SDS011;50943;51.448;7.646;2023-03-01T01:28:42;14.40;;;7.70;;
5831;SDS011;50943;51.448;7.646;2023-03-01T01:31:09;16.57;;;9.60;;
5831;SDS011;50943;51.448;7.646;2023-03-01T01:33:37;16.57;;;8.70;;
5831;SDS011;50943;51.448;7.646;2023-03-01T01:36:04;20.73;;;8.90;;
5831;SDS011;50943;51.448;7.646;2023-03-01T01:38:31;18.37;;;9.87;;
5831;SDS011;50943;51.448;7.646;2023-03-01T01:40:58;17.23;;;8.90;;
5831;SDS011;50943;51.448;7.646;2023-03-01T01:43:26;18.33;;;8.90;;
5831;SDS011;50943;51.448;7.646;2023-03-01T01:45:54;17.20;;;8.73;;
5831;SDS011;50943;51.448;7.646;2023-03-01T01:48:23;17.70;;;9.77;;
5831;SDS011;50943;51.448;7.646;2023-03-01T01:50:53;16.70;;;8.90;;
5831;SDS011;50943;51.448;7.646;2023-03-01T01:53:24;16.60;;;8.70;;
5831;SDS011;50943;51.448;7.646;2023-03-01T01:55:51;20.17;;;9.17;;
5831;SDS011;50943;51.448;7.646;2023-03-01T01:58:22;21.17;;;8.47;;
5831;SDS011;50943;51.448;7.646;2023-03-01T02:00:48;19.90;;;8.60;;
5831;SDS011;50943;51.448;7.646;2023-03-01T02:03:17;18.97;;;8.53;;
5831;SDS011;50943;51.448;7.646;2023-03-01T02:05:46;15.90;;;8.07;;
5831;SDS011;50943;51.448;7.646;2023-03-01T02:08:16;17.00;;;9.10;;
5831;SDS011;50943;51.448;7.646;2023-03-01T02:10:43;13.73;;;8.03;;
5831;SDS011;50943;51.448;7.646;2023-03-01T02:13:10;19.83;;;8.40;;
5831;SDS011;50943;51.448;7.646;2023-03-01T02:15:38;25.07;;;8.07;;
5831;SDS011;50943;51.448;7.646;2023-03-01T02:18:06;13.63;;;7.83;;
5831;SDS011;50943;51.448;7.646;2023-03-01T02:20:34;19.13;;;8.07;;
5831;SDS011;50943;51.448;7.646;2023-03-01T02:23:04;16.67;;;8.00;;
5831;SDS011;50943;51.448;7.646;2023-03-01T02:25:34;15.30;;;8.37;;
5831;SDS011;50943;51.448;7.646;2023-03-01T02:28:04;16.93;;;7.70;;
5831;SDS011;50943;51.448;7.646;2023-03-01T02:30:35;17.00;;;8.83;;
5831;SDS011;50943;51.448;7.646;2023-03-01T02:33:02;17.93;;;8.67;;
5831;SDS011;50943;51.448;7.646;2023-03-01T02:35:30;18.00;;;8.03;;
5831;SDS011;50943;51.448;7.646;2023-03-01T02:37:58;13.73;;;7.73;;
5831;SDS011;50943;51.448;7.646;2023-03-01T02:40:26;16.70;;;7.87;;
5831;SDS011;50943;51.448;7.646;2023-03-01T02:42:55;18.80;;;8.40;;
5831;SDS011;50943;51.448;7.646;2023-03-01T02:45:23;15.30;;;8.93;;
5831;SDS011;50943;51.448;7.646;2023-03-01T02:47:52;14.80;;;8.27;;
5831;SDS011;50943;51.448;7.646;2023-03-01T02:50:22;15.93;;;8.30;;
5831;SDS011;50943;51.448;7.646;2023-03-01T02:53:02;18.53;;;8.63;;
5831;SDS011;50943;51.448;7.646;2023-03-01T02:55:31;18.53;;;7.90;;
5831;SDS011;50943;51.448;7.646;2023-03-01T02:57:57;14.23;;;7.87;;
5831;SDS011;50943;51.448;7.646;2023-03-01T03:00:26;14.20;;;8.47;;
5831;SDS011;50943;51.448;7.646;2023-03-01T03:02:56;15.07;;;8.23;;
5831;SDS011;50943;51.448;7.646;2023-03-01T03:05:23;15.67;;;7.60;;
5831;SDS011;50943;51.448;7.646;2023-03-01T03:07:51;14.30;;;7.20;;
5831;SDS011;50943;51.448;7.646;2023-03-01T03:10:19;13.77;;;7.90;;
5831;SDS011;50943;51.448;7.646;2023-03-01T03:12:48;13.60;;;7.40;;
5831;SDS011;50943;51.448;7.646;2023-03-01T03:15:17;19.07;;;8.47;;
5831;SDS011;50943;51.448;7.646;2023-03-01T03:17:43;15.03;;;8.07;;
5831;SDS011;50943;51.448;7.646;2023-03-01T03:20:13;13.97;;;8.20;;
5831;SDS011;50943;51.448;7.646;2023-03-01T03:22:44;14.87;;;7.47;;
5831;SDS011;50943;51.448;7.646;2023-03-01T03:25:11;21.30;;;8.27;;
5831;SDS011;50943;51.448;7.646;2023-03-01T03:27:37;15.37;;;8.47;;
5831;SDS011;50943;51.448;7.646;2023-03-01T03:30:06;15.33;;;7.43;;
5831;SDS011;50943;51.448;7.646;2023-03-01T03:32:37;15.37;;;7.70;;
5831;SDS011;50943;51.448;7.646;2023-03-01T03:35:04;16.50;;;7.93;;
5831;SDS011;50943;51.448;7.646;2023-03-01T03:37:36;17.53;;;9.10;;
5831;SDS011;50943;51.448;7.646;2023-03-01T03:40:20;16.77;;;7.70;;
5831;SDS011;50943;51.448;7.646;2023-03-01T03:42:46;16.00;;;7.63;;
5831;SDS011;50943;51.448;7.646;2023-03-01T03:45:13;18.50;;;8.77;;
5831;SDS011;50943;51.448;7.646;2023-03-01T03:47:40;19.97;;;9.17;;
5831;SDS011;50943;51.448;7.646;2023-03-01T03:50:08;18.80;;;9.20;;
5831;SDS011;50943;51.448;7.646;2023-03-01T03:52:36;16.27;;;8.60;;
5831;SDS011;50943;51.448;7.646;2023-03-01T03:55:04;18.20;;;8.27;;
5831;SDS011;50943;51.448;7.646;2023-03-01T03:57:36;14.77;;;8.13;;
5831;SDS011;50943;51.448;7.646;2023-03-01T04:00:04;16.07;;;8.17;;
5831;SDS011;50943;51.448;7.646;2023-03-01T04:02:37;21.00;;;9.30;;
5831;SDS011;50943;51.448;7.646;2023-03-01T04:05:04;16.10;;;7.90;;
5831;SDS011;50943;51.448;7.646;2023-03-01T04:07:31;23.13;;;8.90;;
5831;SDS011;50943;51.448;7.646;2023-03-01T04:09:59;14.37;;;8.43;;
5831;SDS011;50943;51.448;7.646;2023-03-01T04:12:26;16.40;;;8.07;;
5831;SDS011;50943;51.448;7.646;2023-03-01T04:14:53;15.77;;;8.63;;
5831;SDS011;50943;51.448;7.646;2023-03-01T04:17:19;14.33;;;8.00;;
5831;SDS011;50943;51.448;7.646;2023-03-01T04:19:45;14.57;;;8.50;;
5831;SDS011;50943;51.448;7.646;2023-03-01T04:22:13;18.40;;;8.97;;
5831;SDS011;50943;51.448;7.646;2023-03-01T04:24:43;16.87;;;8.40;;
5831;SDS011;50943;51.448;7.646;2023-03-01T04:27:11;21.33;;;8.87;;
5831;SDS011;50943;51.448;7.646;2023-03-01T04:29:37;15.60;;;7.80;;
5831;SDS011;50943;51.448;7.646;2023-03-01T04:32:04;16.50;;;9.00;;
5831;SDS011;50943;51.448;7.646;2023-03-01T04:34:30;16.47;;;7.60;;
5831;SDS011;50943;51.448;7.646;2023-03-01T04:36:57;19.97;;;8.43;;
5831;SDS011;50943;51.448;7.646;2023-03-01T04:39:23;18.73;;;8.10;;
5831;SDS011;50943;51.448;7.646;2023-03-01T04:41:50;17.10;;;8.23;;
5831;SDS011;50943;51.448;7.646;2023-03-01T04:44:18;18.77;;;8.53;;
5831;SDS011;50943;51.448;7.646;2023-03-01T04:46:45;18.50;;;8.40;;
5831;SDS011;50943;51.448;7.646;2023-03-01T04:49:15;19.73;;;8.77;;
5831;SDS011;50943;51.448;7.646;2023-03-01T04:51:41;16.87;;;8.27;;
5831;SDS011;50943;51.448;7.646;2023-03-01T04:54:08;14.97;;;7.67;;
5831;SDS011;50943;51.448;7.646;2023-03-01T04:56:35;20.10;;;7.93;;
5831;SDS011;50943;51.448;7.646;2023-03-01T04:59:01;16.30;;;8.30;;
5831;SDS011;50943;51.448;7.646;2023-03-01T05:01:32;16.20;;;7.63;;
5831;SDS011;50943;51.448;7.646;2023-03-01T05:04:00;13.70;;;7.93;;
5831;SDS011;50943;51.448;7.646;2023-03-01T05:06:28;19.20;;;8.23;;
5831;SDS011;50943;51.448;7.646;2023-03-01T05:08:54;19.33;;;7.97;;
5831;SDS011;50943;51.448;7.646;2023-03-01T05:11:22;16.73;;;7.67;;
5831;SDS011;50943;51.448;7.646;2023-03-01T05:13:49;17.07;;;9.07;;
5831;SDS011;50943;51.448;7.646;2023-03-01T05:16:19;15.90;;;7.80;;
5831;SDS011;50943;51.448;7.646;2023-03-01T05:18:47;16.20;;;8.23;;
5831;SDS011;50943;51.448;7.646;2023-03-01T05:21:16;15.87;;;8.20;;
5831;SDS011;50943;51.448;7.646;2023-03-01T05:23:44;15.27;;;8.30;;
5831;SDS011;50943;51.448;7.646;2023-03-01T05:26:11;13.50;;;7.60;;
5831;SDS011;50943;51.448;7.646;2023-03-01T05:28:38;14.57;;;8.00;;
5831;SDS011;50943;51.448;7.646;2023-03-01T05:31:05;21.47;;;9.10;;
5831;SDS011;50943;51.448;7.646;2023-03-01T05:33:35;18.13;;;7.87;;
5831;SDS011;50943;51.448;7.646;2023-03-01T05:36:03;16.07;;;8.20;;
5831;SDS011;50943;51.448;7.646;2023-03-01T05:38:30;15.10;;;8.30;;
5831;SDS011;50943;51.448;7.646;2023-03-01T05:40:57;15.30;;;7.90;;
5831;SDS011;50943;51.448;7.646;2023-03-01T05:43:23;19.20;;;8.63;;
5831;SDS011;50943;51.448;7.646;2023-03-01T05:45:50;15.73;;;7.83;;
5831;SDS011;50943;51.448;7.646;2023-03-01T05:48:17;21.33;;;9.57;;
5831;SDS011;50943;51.448;7.646;2023-03-01T05:50:44;24.83;;;9.80;;
5831;SDS011;50943;51.448;7.646;2023-03-01T05:53:14;18.20;;;9.23;;
5831;SDS011;50943;51.448;7.646;2023-03-01T05:55:41;16.30;;;8.83;;
5831;SDS011;50943;51.448;7.646;2023-03-01T05:58:09;21.37;;;10.23;;
5831;SDS011;50943;51.448;7.646;2023-03-01T06:00:39;18.27;;;9.90;;
5831;SDS011;50943;51.448;7.646;2023-03-01T06:03:05;16.73;;;8.70;;
5831;SDS011;50943;51.448;7.646;2023-03-01T06:05:32;15.70;;;8.50;;
5831;SDS011;50943;51.448;7.646;2023-03-01T06:07:59;19.43;;;10.00;;
5831;SDS011;50943;51.448;7.646;2023-03-01T06:10:27;17.70;;;9.40;;
5831;SDS011;50943;51.448;7.646;2023-03-01T06:12:54;19.53;;;9.10;;
5831;SDS011;50943;51.448;7.646;2023-03-01T06:15:21;18.70;;;9.37;;
5831;SDS011;50943;51.448;7.646;2023-03-01T06:17:49;20.07;;;7.83;;
5831;SDS011;50943;51.448;7.646;2023-03-01T06:20:20;17.43;;;8.67;;
5831;SDS011;50943;51.448;7.646;2023-03-01T06:22:47;19.10;;;8.23;;
5831;SDS011;50943;51.448;7.646;2023-03-01T06:25:17;20.03;;;9.37;;
5831;SDS011;50943;51.448;7.646;2023-03-01T06:27:48;25.73;;;9.37;;
5831;SDS011;50943;51.448;7.646;2023-03-01T06:30:15;40.63;;;11.07;;
5831;SDS011;50943;51.448;7.646;2023-03-01T06:32:42;29.90;;;13.97;;
5831;SDS011;50943;51.448;7.646;2023-03-01T06:35:12;36.13;;;16.80;;
5831;SDS011;50943;51.448;7.646;2023-03-01T06:37:39;46.10;;;19.33;;
5831;SDS011;50943;51.448;7.646;2023-03-01T06:40:06;49.70;;;19.47;;
5831;SDS011;50943;51.448;7.646;2023-03-01T06:42:36;47.30;;;18.87;;
5831;SDS011;50943;51.448;7.646;2023-03-01T06:45:05;41.37;;;17.83;;
5831;SDS011;50943;51.448;7.646;2023-03-01T06:47:33;44.30;;;18.73;;
5831;SDS011;50943;51.448;7.646;2023-03-01T06:49:59;39.47;;;15.80;;
5831;SDS011;50943;51.448;7.646;2023-03-01T06:52:26;29.60;;;13.77;;
5831;SDS011;50943;51.448;7.646;2023-03-01T06:54:53;25.53;;;11.93;;
5831;SDS011;50943;51.448;7.646;2023-03-01T06:57:19;24.77;;;10.37;;
5831;SDS011;50943;51.448;7.646;2023-03-01T06:59:46;21.17;;;10.37;;
5831;SDS011;50943;51.448;7.646;2023-03-01T07:02:15;23.60;;;10.73;;
5831;SDS011;50943;51.448;7.646;2023-03-01T07:04:42;21.30;;;9.70;;
5831;SDS011;50943;51.448;7.646;2023-03-01T07:07:08;23.10;;;11.30;;
5831;SDS011;50943;51.448;7.646;2023-03-01T07:09:35;22.00;;;10.60;;
5831;SDS011;50943;51.448;7.646;2023-03-01T07:12:02;20.73;;;10.13;;
5831;SDS011;50943;51.448;7.646;2023-03-01T07:14:31;24.17;;;10.67;;
5831;SDS011;50943;51.448;7.646;2023-03-01T07:16:58;20.73;;;9.10;;
5831;SDS011;50943;51.448;7.646;2023-03-01T07:19:26;18.80;;;9.17;;
5831;SDS011;50943;51.448;7.646;2023-03-01T07:21:52;20.90;;;9.63;;
5831;SDS011;50943;51.448;7.646;2023-03-01T07:24:20;18.80;;;8.80;;
5831;SDS011;50943;51.448;7.646;2023-03-01T07:26:48;20.63;;;9.07;;
5831;SDS011;50943;51.448;7.646;2023-03-01T07:29:14;19.67;;;9.70;;
5831;SDS011;50943;51.448;7.646;2023-03-01T07:31:41;18.97;;;9.37;;
5831;SDS011;50943;51.448;7.646;2023-03-01T07:34:07;19.37;;;9.10;;
5831;SDS011;50943;51.448;7.646;2023-03-01T07:36:35;20.43;;;9.90;;
5831;SDS011;50943;51.448;7.646;2023-03-01T07:39:02;20.50;;;8.73;;
5831;SDS011;50943;51.448;7.646;2023-03-01T07:41:29;27.57;;;10.27;;
5831;SDS011;50943;51.448;7.646;2023-03-01T07:43:55;27.37;;;10.77;;
5831;SDS011;50943;51.448;7.646;2023-03-01T07:46:22;26.53;;;10.70;;
5831;SDS011;50943;51.448;7.646;2023-03-01T07:48:48;19.73;;;9.13;;
5831;SDS011;50943;51.448;7.646;2023-03-01T07:51:15;18.90;;;9.80;;
5831;SDS011;50943;51.448;7.646;2023-03-01T07:53:44;19.57;;;9.20;;
5831;SDS011;50943;51.448;7.646;2023-03-01T07:56:12;21.23;;;11.03;;
5831;SDS011;50943;51.448;7.646;2023-03-01T07:58:41;20.30;;;10.47;;
5831;SDS011;50943;51.448;7.646;2023-03-01T08:01:09;18.77;;;10.17;;
5831;SDS011;50943;51.448;7.646;2023-03-01T08:03:37;21.07;;;11.10;;
5831;SDS011;50943;51.448;7.646;2023-03-01T08:06:04;22.73;;;11.00;;
5831;SDS011;50943;51.448;7.646;2023-03-01T08:08:32;26.10;;;11.20;;
5831;SDS011;50943;51.448;7.646;2023-03-01T08:11:01;22.57;;;11.80;;
5831;SDS011;50943;51.448;7.646;2023-03-01T08:13:28;19.17;;;9.80;;
5831;SDS011;50943;51.448;7.646;2023-03-01T08:16:00;20.87;;;10.07;;
5831;SDS011;50943;51.448;7.646;2023-03-01T08:18:27;22.37;;;10.70;;
5831;SDS011;50943;51.448;7.646;2023-03-01T08:20:53;20.83;;;10.30;;
5831;SDS011;50943;51.448;7.646;2023-03-01T08:23:24;21.43;;;11.23;;
5831;SDS011;50943;51.448;7.646;2023-03-01T08:25:51;23.70;;;11.97;;
5831;SDS011;50943;51.448;7.646;2023-03-01T08:28:19;28.63;;;10.70;;
5831;SDS011;50943;51.448;7.646;2023-03-01T08:30:46;21.23;;;10.80;;
5831;SDS011;50943;51.448;7.646;2023-03-01T08:33:12;21.80;;;10.70;;
5831;SDS011;50943;51.448;7.646;2023-03-01T08:35:38;20.50;;;10.30;;
5831;SDS011;50943;51.448;7.646;2023-03-01T08:38:05;19.23;;;10.13;;
5831;SDS011;50943;51.448;7.646;2023-03-01T08:40:34;20.33;;;10.57;;
5831;SDS011;50943;51.448;7.646;2023-03-01T08:43:00;22.50;;;10.07;;
5831;SDS011;50943;51.448;7.646;2023-03-01T08:45:29;19.50;;;10.63;;
5831;SDS011;50943;51.448;7.646;2023-03-01T08:47:55;17.50;;;9.30;;
5831;SDS011;50943;51.448;7.646;2023-03-01T08:50:22;20.47;;;8.83;;
5831;SDS011;50943;51.448;7.646;2023-03-01T08:52:49;18.53;;;8.53;;
5831;SDS011;50943;51.448;7.646;2023-03-01T08:55:16;17.90;;;8.83;;
5831;SDS011;50943;51.448;7.646;2023-03-01T08:57:42;14.60;;;8.03;;
5831;SDS011;50943;51.448;7.646;2023-03-01T09:00:09;13.43;;;8.07;;
5831;SDS011;50943;51.448;7.646;2023-03-01T09:02:41;16.83;;;8.97;;
5831;SDS011;50943;51.448;7.646;2023-03-01T09:05:08;19.03;;;7.37;;
5831;SDS011;50943;51.448;7.646;2023-03-01T09:07:34;15.00;;;7.73;;
5831;SDS011;50943;51.448;7.646;2023-03-01T09:10:01;12.10;;;7.37;;
5831;SDS011;50943;51.448;7.646;2023-03-01T09:12:28;13.47;;;7.50;;
5831;SDS011;50943;51.448;7.646;2023-03-01T09:14:54;19.87;;;7.70;;
5831;SDS011;50943;51.448;7.646;2023-03-01T09:17:21;15.67;;;7.80;;
5831;SDS011;50943;51.448;7.646;2023-03-01T09:19:49;12.87;;;7.17;;
5831;SDS011;50943;51.448;7.646;2023-03-01T09:22:15;13.27;;;6.90;;
5831;SDS011;50943;51.448;7.646;2023-03-01T09:24:43;14.40;;;6.53;;
5831;SDS011;50943;51.448;7.646;2023-03-01T09:27:10;12.30;;;7.17;;
5831;SDS011;50943;51.448;7.646;2023-03-01T09:29:38;13.07;;;6.33;;
5831;SDS011;50943;51.448;7.646;2023-03-01T09:32:04;12.70;;;7.10;;
5831;SDS011;50943;51.448;7.646;2023-03-01T09:34:33;12.20;;;6.73;;
5831;SDS011;50943;51.448;7.646;2023-03-01T09:37:21;10.47;;;5.83;;
5831;SDS011;50943;51.448;7.646;2023-03-01T09:39:47;11.60;;;7.10;;
5831;SDS011;50943;51.448;7.646;2023-03-01T09:42:14;10.90;;;6.17;;
5831;SDS011;50943;51.448;7.646;2023-03-01T09:44:42;12.40;;;6.37;;
5831;SDS011;50943;51.448;7.646;2023-03-01T09:47:12;10.50;;;6.20;;
5831;SDS011;50943;51.448;7.646;2023-03-01T09:49:43;17.17;;;6.87;;
5831;SDS011;50943;51.448;7.646;2023-03-01T09:52:17;11.30;;;5.97;;
5831;SDS011;50943;51.448;7.646;2023-03-01T09:54:52;13.77;;;6.33;;
5831;SDS011;50943;51.448;7.646;2023-03-01T09:57:26;13.80;;;6.47;;
5831;SDS011;50943;51.448;7.646;2023-03-01T10:00:00;12.30;;;5.60;;
5831;SDS011;50943;51.448;7.646;2023-03-01T10:02:38;17.23;;;6.97;;
5831;SDS011;50943;51.448;7.646;2023-03-01T10:05:10;11.43;;;6.67;;
5831;SDS011;50943;51.448;7.646;2023-03-01T10:07:44;12.07;;;6.30;;
5831;SDS011;50943;51.448;7.646;2023-03-01T10:10:16;10.23;;;6.07;;
5831;SDS011;50943;51.448;7.646;2023-03-01T10:12:50;15.37;;;6.80;;
5831;SDS011;50943;51.448;7.646;2023-03-01T10:15:18;13.20;;;6.77;;
5831;SDS011;50943;51.448;7.646;2023-03-01T10:17:48;13.77;;;6.60;;
5831;SDS011;50943;51.448;7.646;2023-03-01T10:20:20;13.10;;;6.40;;
5831;SDS011;50943;51.448;7.646;2023-03-01T10:22:49;12.13;;;6.30;;
5831;SDS011;50943;51.448;7.646;2023-03-01T10:25:20;9.73;;;6.03;;
5831;SDS011;50943;51.448;7.646;2023-03-01T10:27:52;12.17;;;6.23;;
5831;SDS011;50943;51.448;7.646;2023-03-01T10:30:20;13.87;;;6.63;;
5831;SDS011;50943;51.448;7.646;2023-03-01T10:32:49;16.00;;;6.90;;
5831;SDS011;50943;51.448;7.646;2023-03-01T10:35:18;14.23;;;7.03;;
5831;SDS011;50943;51.448;7.646;2023-03-01T10:37:57;14.77;;;6.47;;
5831;SDS011;50943;51.448;7.646;2023-03-01T10:40:25;13.23;;;6.40;;
5831;SDS011;50943;51.448;7.646;2023-03-01T10:42:51;9.87;;;6.00;;
5831;SDS011;50943;51.448;7.646;2023-03-01T10:45:32;13.93;;;7.20;;
5831;SDS011;50943;51.448;7.646;2023-03-01T10:48:04;14.90;;;6.60;;
5831;SDS011;50943;51.448;7.646;2023-03-01T10:50:32;14.53;;;6.00;;
5831;SDS011;50943;51.448;7.646;2023-03-01T10:53:01;15.00;;;7.10;;
5831;SDS011;50943;51.448;7.646;2023-03-01T10:55:30;13.20;;;7.47;;
5831;SDS011;50943;51.448;7.646;2023-03-01T10:58:11;14.30;;;7.43;;
5831;SDS011;50943;51.448;7.646;2023-03-01T11:00:48;10.27;;;6.77;;
5831;SDS011;50943;51.448;7.646;2023-03-01T11:03:17;10.93;;;6.80;;
5831;SDS011;50943;51.448;7.646;2023-03-01T11:05:56;10.97;;;6.47;;
5831;SDS011;50943;51.448;7.646;2023-03-01T11:08:30;11.70;;;6.57;;
5831;SDS011;50943;51.448;7.646;2023-03-01T11:11:06;12.03;;;6.37;;
5831;SDS011;50943;51.448;7.646;2023-03-01T11:13:52;12.33;;;6.60;;
5831;SDS011;50943;51.448;7.646;2023-03-01T11:16:33;12.33;;;6.73;;
5831;SDS011;50943;51.448;7.646;2023-03-01T11:19:13;10.13;;;6.73;;
5831;SDS011;50943;51.448;7.646;2023-03-01T11:21:42;10.47;;;6.83;;
5831;SDS011;50943;51.448;7.646;2023-03-01T11:24:15;12.63;;;6.90;;
5831;SDS011;50943;51.448;7.646;2023-03-01T11:26:43;10.83;;;5.90;;
5831;SDS011;50943;51.448;7.646;2023-03-01T11:29:13;9.87;;;6.20;;
5831;SDS011;50943;51.448;7.646;2023-03-01T11:31:45;12.60;;;5.80;;
5831;SDS011;50943;51.448;7.646;2023-03-01T11:34:13;11.00;;;6.33;;
5831;SDS011;50943;51.448;7.646;2023-03-01T11:36:44;11.20;;;6.33;;
5831;SDS011;50943;51.448;7.646;2023-03-01T11:39:18;11.10;;;6.63;;
5831;SDS011;50943;51.448;7.646;2023-03-01T11:41:50;12.67;;;6.43;;
5831;SDS011;50943;51.448;7.646;2023-03-01T11:44:23;11.93;;;6.50;;
5831;SDS011;50943;51.448;7.646;2023-03-01T11:46:57;12.53;;;7.07;;
5831;SDS011;50943;51.448;7.646;2023-03-01T11:49:47;14.43;;;6.70;;
5831;SDS011;50943;51.448;7.646;2023-03-01T11:52:35;10.60;;;6.23;;
5831;SDS011;50943;51.448;7.646;2023-03-01T11:55:16;9.90;;;6.40;;
5831;SDS011;50943;51.448;7.646;2023-03-01T11:57:51;10.10;;;6.37;;
5831;SDS011;50943;51.448;7.646;2023-03-01T12:00:30;11.20;;;6.23;;
5831;SDS011;50943;51.448;7.646;2023-03-01T12:03:28;8.47;;;5.97;;
5831;SDS011;50943;51.448;7.646;2023-03-01T12:06:09;11.00;;;6.77;;
5831;SDS011;50943;51.448;7.646;2023-03-01T12:08:49;9.83;;;6.13;;
5831;SDS011;50943;51.448;7.646;2023-03-01T12:11:23;14.00;;;6.90;;
5831;SDS011;50943;51.448;7.646;2023-03-01T12:16:57;11.80;;;6.37;;
5831;SDS011;50943;51.448;7.646;2023-03-01T12:19:31;12.07;;;6.80;;
5831;SDS011;50943;51.448;7.646;2023-03-01T12:22:09;12.70;;;7.17;;
5831;SDS011;50943;51.448;7.646;2023-03-01T12:27:57;11.83;;;6.60;;
5831;SDS011;50943;51.448;7.646;2023-03-01T12:30:34;9.13;;;6.37;;
5831;SDS011;50943;51.448;7.646;2023-03-01T12:33:12;10.47;;;6.17;;
5831;SDS011;50943;51.448;7.646;2023-03-01T12:36:06;9.57;;;6.63;;
5831;SDS011;50943;51.448;7.646;2023-03-01T12:38:48;11.27;;;6.23;;
5831;SDS011;50943;51.448;7.646;2023-03-01T12:41:27;13.33;;;6.60;;
5831;SDS011;50943;51.448;7.646;2023-03-01T12:44:06;11.07;;;6.43;;
5831;SDS011;50943;51.448;7.646;2023-03-01T12:46:44;12.53;;;6.57;;
5831;SDS011;50943;51.448;7.646;2023-03-01T12:49:18;12.03;;;6.57;;
5831;SDS011;50943;51.448;7.646;2023-03-01T12:51:50;11.20;;;6.73;;
5831;SDS011;50943;51.448;7.646;2023-03-01T12:54:19;11.67;;;7.40;;
5831;SDS011;50943;51.448;7.646;2023-03-01T12:56:50;12.53;;;6.70;;
5831;SDS011;50943;51.448;7.646;2023-03-01T12:59:19;12.30;;;6.60;;
5831;SDS011;50943;51.448;7.646;2023-03-01T13:01:49;10.93;;;7.10;;
5831;SDS011;50943;51.448;7.646;2023-03-01T13:04:28;12.00;;;6.40;;
5831;SDS011;50943;51.448;7.646;2023-03-01T13:07:09;11.83;;;6.40;;
5831;SDS011;50943;51.448;7.646;2023-03-01T13:09:48;16.77;;;6.63;;
5831;SDS011;50943;51.448;7.646;2023-03-01T13:17:55;10.43;;;6.00;;
5831;SDS011;50943;51.448;7.646;2023-03-01T13:20:24;10.00;;;6.27;;
5831;SDS011;50943;51.448;7.646;2023-03-01T13:23:00;10.43;;;5.50;;
5831;SDS011;50943;51.448;7.646;2023-03-01T13:25:32;8.47;;;5.37;;
5831;SDS011;50943;51.448;7.646;2023-03-01T13:31:04;8.40;;;5.70;;
5831;SDS011;50943;51.448;7.646;2023-03-01T13:33:39;7.70;;;5.17;;
5831;SDS011;50943;51.448;7.646;2023-03-01T13:36:10;17.40;;;8.77;;
5831;SDS011;50943;51.448;7.646;2023-03-01T13:38:45;10.10;;;6.37;;
5831;SDS011;50943;51.448;7.646;2023-03-01T13:41:12;12.27;;;6.93;;
5831;SDS011;50943;51.448;7.646;2023-03-01T13:43:40;13.83;;;6.80;;
5831;SDS011;50943;51.448;7.646;2023-03-01T13:46:10;11.83;;;6.53;;
5831;SDS011;50943;51.448;7.646;2023-03-01T13:48:38;13.40;;;7.00;;
5831;SDS011;50943;51.448;7.646;2023-03-01T13:51:07;14.50;;;7.23;;
5831;SDS011;50943;51.448;7.646;2023-03-01T13:53:38;9.40;;;6.00;;
5831;SDS011;50943;51.448;7.646;2023-03-01T13:56:07;10.33;;;5.53;;
5831;SDS011;50943;51.448;7.646;2023-03-01T13:58:43;10.90;;;6.73;;
5831;SDS011;50943;51.448;7.646;2023-03-01T14:01:20;9.60;;;5.43;;
5831;SDS011;50943;51.448;7.646;2023-03-01T14:03:48;10.20;;;5.47;;
5831;SDS011;50943;51.448;7.646;2023-03-01T14:06:16;9.87;;;6.10;;
5831;SDS011;50943;51.448;7.646;2023-03-01T14:08:45;9.30;;;5.97;;
5831;SDS011;50943;51.448;7.646;2023-03-01T14:11:20;10.13;;;5.80;;
5831;SDS011;50943;51.448;7.646;2023-03-01T14:16:52;12.90;;;5.60;;
5831;SDS011;50943;51.448;7.646;2023-03-01T14:19:25;9.80;;;4.83;;
5831;SDS011;50943;51.448;7.646;2023-03-01T14:21:58;11.50;;;5.10;;
5831;SDS011;50943;51.448;7.646;2023-03-01T14:24:27;11.13;;;6.20;;
5831;SDS011;50943;51.448;7.646;2023-03-01T14:26:53;9.70;;;5.57;;
5831;SDS011;50943;51.448;7.646;2023-03-01T14:29:24;7.60;;;5.20;;
5831;SDS011;50943;51.448;7.646;2023-03-01T14:32:01;9.33;;;4.93;;
5831;SDS011;50943;51.448;7.646;2023-03-01T14:34:34;14.40;;;6.23;;
5831;SDS011;50943;51.448;7.646;2023-03-01T14:37:09;10.57;;;4.93;;
5831;SDS011;50943;51.448;7.646;2023-03-01T14:39:36;7.33;;;5.30;;
5831;SDS011;50943;51.448;7.646;2023-03-01T14:42:04;10.47;;;5.63;;
5831;SDS011;50943;51.448;7.646;2023-03-01T14:44:30;10.20;;;5.57;;
5831;SDS011;50943;51.448;7.646;2023-03-01T14:47:00;11.13;;;5.23;;
5831;SDS011;50943;51.448;7.646;2023-03-01T14:49:29;8.30;;;5.50;;
5831;SDS011;50943;51.448;7.646;2023-03-01T14:51:57;10.80;;;5.10;;
5831;SDS011;50943;51.448;7.646;2023-03-01T14:54:27;8.83;;;5.43;;
5831;SDS011;50943;51.448;7.646;2023-03-01T14:56:58;8.20;;;5.40;;
5831;SDS011;50943;51.448;7.646;2023-03-01T14:59:25;8.20;;;4.77;;
5831;SDS011;50943;51.448;7.646;2023-03-01T15:01:53;8.97;;;5.43;;
5831;SDS011;50943;51.448;7.646;2023-03-01T15:04:22;9.77;;;5.33;;
5831;SDS011;50943;51.448;7.646;2023-03-01T15:06:51;10.60;;;6.17;;
5831;SDS011;50943;51.448;7.646;2023-03-01T15:09:18;9.07;;;5.10;;
5831;SDS011;50943;51.448;7.646;2023-03-01T15:11:45;14.57;;;5.20;;
5831;SDS011;50943;51.448;7.646;2023-03-01T15:17:16;9.03;;;5.43;;
5831;SDS011;50943;51.448;7.646;2023-03-01T15:19:48;11.83;;;4.90;;